sensor_id;sensor_type;location;lat;lon;timestamp;temperature;humidity
19363;DHT22;9817;50.80926400;5.16316200;2023-04-01T00:01:25;10.90;99.90
19363;DHT22;9817;50.80926400;5.16316200;2023-04-01T00:03:51;10.90;99.90
19363;DHT22;9817;50.80926400;5.16316200;2023-04-01T00:06:18;10.80;99.90
19363;DHT22;9817;50.80926400;5.16316200;2023-04-01T00:08:44;10.90;99.90
19363;DHT22;9817;50.80926400;5.16316200;2023-04-01T00:11:10;10.90;99.90
19363;DHT22;9817;50.80926400;5.16316200;2023-04-01T00:13:36;10.90;99.90
19363;DHT22;9817;50.80926400;5.16316200;2023-04-01T00:16:02;10.90;99.90
19363;DHT22;9817;50.80926400;5.16316200;2023-04-01T00:18:29;10.90;99.90
19363;DHT22;9817;50.80926400;5.16316200;2023-04-01T00:20:55;10.90;99.90
19363;DHT22;9817;50.80926400;5.16316200;2023-04-01T00:23:20;10.80;99.90
19363;DHT22;9817;50.80926400;5.16316200;2023-04-01T00:25:47;10.90;99.90
19363;DHT22;9817;50.80926400;5.16316200;2023-04-01T00:28:14;10.80;99.90
19363;DHT22;9817;50.80926400;5.16316200;2023-04-01T00:30:40;10.90;99.90
19363;DHT22;9817;50.80926400;5.16316200;2023-04-01T00:33:06;11.00;99.90
19363;DHT22;9817;50.80926400;5.16316200;2023-04-01T00:35:31;11.00;99.90
19363;DHT22;9817;50.80926400;5.16316200;2023-04-01T00:37:58;11.10;99.90
19363;DHT22;9817;50.80926400;5.16316200;2023-04-01T00:40:31;11.00;99.90
19363;DHT22;9817;50.80926400;5.16316200;2023-04-01T00:42:57;10.90;99.90
19363;DHT22;9817;50.80926400;5.16316200;2023-04-01T00:45:28;10.90;99.90
19363;DHT22;9817;50.80926400;5.16316200;2023-04-01T00:47:55;10.90;99.90
19363;DHT22;9817;50.80926400;5.16316200;2023-04-01T00:50:22;10.90;99.90
19363;DHT22;9817;50.80926400;5.16316200;2023-04-01T00:52:50;10.90;99.90
19363;DHT22;9817;50.80926400;5.16316200;2023-04-01T00:55:16;11.00;99.90
19363;DHT22;9817;50.80926400;5.16316200;2023-04-01T00:57:45;11.00;99.90
19363;DHT22;9817;50.80926400;5.16316200;2023-04-01T01:00:12;11.00;99.90
19363;DHT22;9817;50.80926400;5.16316200;2023-04-01T01:02:41;10.90;99.90
19363;DHT22;9817;50.80926400;5.16316200;2023-04-01T01:05:11;11.10;99.90
19363;DHT22;9817;50.80926400;5.16316200;2023-04-01T01:08:01;11.00;99.90
19363;DHT22;9817;50.80926400;5.16316200;2023-04-01T01:10:30;11.10;99.90
19363;DHT22;9817;50.80926400;5.16316200;2023-04-01T01:15:36;10.90;99.90
19363;DHT22;9817;50.80926400;5.16316200;2023-04-01T01:21:13;11.00;99.90
19363;DHT22;9817;50.80926400;5.16316200;2023-04-01T01:26:50;11.00;99.90
19363;DHT22;9817;50.80926400;5.16316200;2023-04-01T01:37:35;10.80;99.90
19363;DHT22;9817;50.80926400;5.16316200;2023-04-01T01:40:05;10.80;99.90
19363;DHT22;9817;50.80926400;5.16316200;2023-04-01T01:42:35;10.80;99.90
19363;DHT22;9817;50.80926400;5.16316200;2023-04-01T01:45:04;10.80;99.90
19363;DHT22;9817;50.80926400;5.16316200;2023-04-01T01:47:31;10.90;99.90
19363;DHT22;9817;50.80926400;5.16316200;2023-04-01T01:49:58;10.80;99.90
19363;DHT22;9817;50.80926400;5.16316200;2023-04-01T01:52:27;10.90;99.90
19363;DHT22;9817;50.80926400;5.16316200;2023-04-01T01:54:55;10.90;99.90
19363;DHT22;9817;50.80926400;5.16316200;2023-04-01T01:57:34;10.90;99.90
19363;DHT22;9817;50.80926400;5.16316200;2023-04-01T02:00:07;10.90;99.90
19363;DHT22;9817;50.80926400;5.16316200;2023-04-01T02:02:42;10.80;99.90
19363;DHT22;9817;50.80926400;5.16316200;2023-04-01T02:05:20;10.80;99.90
19363;DHT22;9817;50.80926400;5.16316200;2023-04-01T02:08:12;10.90;99.90
19363;DHT22;9817;50.80926400;5.16316200;2023-04-01T02:10:42;10.90;99.90
19363;DHT22;9817;50.80926400;5.16316200;2023-04-01T02:13:27;10.90;99.90
19363;DHT22;9817;50.80926400;5.16316200;2023-04-01T02:15:58;10.80;99.90
19363;DHT22;9817;50.80926400;5.16316200;2023-04-01T02:18:25;10.80;99.90
19363;DHT22;9817;50.80926400;5.16316200;2023-04-01T02:20:53;10.80;99.90
19363;DHT22;9817;50.80926400;5.16316200;2023-04-01T02:23:19;10.90;99.90
19363;DHT22;9817;50.80926400;5.16316200;2023-04-01T02:25:47;11.00;99.90
19363;DHT22;9817;50.80926400;5.16316200;2023-04-01T02:28:13;10.90;99.90
19363;DHT22;9817;50.80926400;5.16316200;2023-04-01T02:30:43;10.90;99.90
19363;DHT22;9817;50.80926400;5.16316200;2023-04-01T02:33:09;10.90;99.90
19363;DHT22;9817;50.80926400;5.16316200;2023-04-01T02:35:36;10.90;99.90
19363;DHT22;9817;50.80926400;5.16316200;2023-04-01T02:38:03;10.90;99.90
19363;DHT22;9817;50.80926400;5.16316200;2023-04-01T02:40:29;10.90;99.90
19363;DHT22;9817;50.80926400;5.16316200;2023-04-01T02:42:54;10.90;99.90
19363;DHT22;9817;50.80926400;5.16316200;2023-04-01T02:45:20;10.90;99.90
19363;DHT22;9817;50.80926400;5.16316200;2023-04-01T02:47:46;10.90;99.90
19363;DHT22;9817;50.80926400;5.16316200;2023-04-01T02:50:12;10.90;99.90
19363;DHT22;9817;50.80926400;5.16316200;2023-04-01T02:52:37;11.00;99.90
19363;DHT22;9817;50.80926400;5.16316200;2023-04-01T02:55:04;11.00;99.90
19363;DHT22;9817;50.80926400;5.16316200;2023-04-01T02:57:29;11.00;99.90
19363;DHT22;9817;50.80926400;5.16316200;2023-04-01T02:59:55;11.00;99.90
19363;DHT22;9817;50.80926400;5.16316200;2023-04-01T03:02:21;10.90;99.90
19363;DHT22;9817;50.80926400;5.16316200;2023-04-01T03:04:46;11.00;99.90
19363;DHT22;9817;50.80926400;5.16316200;2023-04-01T03:07:12;11.00;99.90
19363;DHT22;9817;50.80926400;5.16316200;2023-04-01T03:09:38;11.10;99.90
19363;DHT22;9817;50.80926400;5.16316200;2023-04-01T03:12:04;11.20;99.90
19363;DHT22;9817;50.80926400;5.16316200;2023-04-01T03:14:30;11.20;99.90
19363;DHT22;9817;50.80926400;5.16316200;2023-04-01T03:16:55;11.30;99.90
19363;DHT22;9817;50.80926400;5.16316200;2023-04-01T03:19:21;11.10;99.90
19363;DHT22;9817;50.80926400;5.16316200;2023-04-01T03:21:46;11.00;99.90
19363;DHT22;9817;50.80926400;5.16316200;2023-04-01T03:24:12;11.20;99.90
19363;DHT22;9817;50.80926400;5.16316200;2023-04-01T03:26:38;11.20;99.90
19363;DHT22;9817;50.80926400;5.16316200;2023-04-01T03:29:04;11.20;99.90
19363;DHT22;9817;50.80926400;5.16316200;2023-04-01T03:31:30;11.20;99.90
19363;DHT22;9817;50.80926400;5.16316200;2023-04-01T03:33:55;11.10;99.90
19363;DHT22;9817;50.80926400;5.16316200;2023-04-01T03:36:21;11.10;99.90
19363;DHT22;9817;50.80926400;5.16316200;2023-04-01T03:38:47;11.00;99.90
19363;DHT22;9817;50.80926400;5.16316200;2023-04-01T03:41:14;11.10;99.90
19363;DHT22;9817;50.80926400;5.16316200;2023-04-01T03:43:39;11.10;99.90
19363;DHT22;9817;50.80926400;5.16316200;2023-04-01T03:46:05;11.00;99.90
19363;DHT22;9817;50.80926400;5.16316200;2023-04-01T03:48:31;11.10;99.90
19363;DHT22;9817;50.80926400;5.16316200;2023-04-01T03:50:56;11.00;99.90
19363;DHT22;9817;50.80926400;5.16316200;2023-04-01T03:53:22;10.90;99.90
19363;DHT22;9817;50.80926400;5.16316200;2023-04-01T03:55:47;10.90;99.90
19363;DHT22;9817;50.80926400;5.16316200;2023-04-01T03:58:13;10.90;99.90
19363;DHT22;9817;50.80926400;5.16316200;2023-04-01T04:00:39;10.90;99.90
19363;DHT22;9817;50.80926400;5.16316200;2023-04-01T04:03:06;10.90;99.90
19363;DHT22;9817;50.80926400;5.16316200;2023-04-01T04:05:32;10.80;99.90
19363;DHT22;9817;50.80926400;5.16316200;2023-04-01T04:07:57;10.80;99.90
19363;DHT22;9817;50.80926400;5.16316200;2023-04-01T04:10:23;10.80;99.90
19363;DHT22;9817;50.80926400;5.16316200;2023-04-01T04:12:50;10.90;99.90
19363;DHT22;9817;50.80926400;5.16316200;2023-04-01T04:15:16;10.90;99.90
19363;DHT22;9817;50.80926400;5.16316200;2023-04-01T04:17:42;10.90;99.90
19363;DHT22;9817;50.80926400;5.16316200;2023-04-01T04:20:08;11.00;99.90
19363;DHT22;9817;50.80926400;5.16316200;2023-04-01T04:22:34;11.00;99.90
19363;DHT22;9817;50.80926400;5.16316200;2023-04-01T04:24:59;11.00;99.90
19363;DHT22;9817;50.80926400;5.16316200;2023-04-01T04:27:25;10.90;99.90
19363;DHT22;9817;50.80926400;5.16316200;2023-04-01T04:29:51;11.00;99.90
19363;DHT22;9817;50.80926400;5.16316200;2023-04-01T04:32:16;11.00;99.90
19363;DHT22;9817;50.80926400;5.16316200;2023-04-01T04:34:42;11.00;99.90
19363;DHT22;9817;50.80926400;5.16316200;2023-04-01T04:37:07;11.00;99.90
19363;DHT22;9817;50.80926400;5.16316200;2023-04-01T04:39:33;11.00;99.90
19363;DHT22;9817;50.80926400;5.16316200;2023-04-01T04:41:59;11.00;99.90
19363;DHT22;9817;50.80926400;5.16316200;2023-04-01T04:44:24;11.00;99.90
19363;DHT22;9817;50.80926400;5.16316200;2023-04-01T04:46:50;11.00;99.90
19363;DHT22;9817;50.80926400;5.16316200;2023-04-01T04:49:15;11.00;99.90
19363;DHT22;9817;50.80926400;5.16316200;2023-04-01T04:51:41;11.00;99.90
19363;DHT22;9817;50.80926400;5.16316200;2023-04-01T04:54:09;11.00;99.90
19363;DHT22;9817;50.80926400;5.16316200;2023-04-01T04:56:34;11.20;99.90
19363;DHT22;9817;50.80926400;5.16316200;2023-04-01T04:59:01;11.10;99.90
19363;DHT22;9817;50.80926400;5.16316200;2023-04-01T05:01:27;11.00;99.90
19363;DHT22;9817;50.80926400;5.16316200;2023-04-01T05:03:52;10.90;99.90
19363;DHT22;9817;50.80926400;5.16316200;2023-04-01T05:06:19;10.90;99.90
19363;DHT22;9817;50.80926400;5.16316200;2023-04-01T05:08:45;10.80;99.90
19363;DHT22;9817;50.80926400;5.16316200;2023-04-01T05:11:18;10.70;99.90
19363;DHT22;9817;50.80926400;5.16316200;2023-04-01T05:13:44;10.70;99.90
19363;DHT22;9817;50.80926400;5.16316200;2023-04-01T05:16:12;10.60;99.90
19363;DHT22;9817;50.80926400;5.16316200;2023-04-01T05:18:38;10.70;99.90
19363;DHT22;9817;50.80926400;5.16316200;2023-04-01T05:21:06;10.90;99.90
19363;DHT22;9817;50.80926400;5.16316200;2023-04-01T05:23:32;10.90;99.90
19363;DHT22;9817;50.80926400;5.16316200;2023-04-01T05:25:58;10.80;99.90
19363;DHT22;9817;50.80926400;5.16316200;2023-04-01T05:28:24;10.70;99.90
19363;DHT22;9817;50.80926400;5.16316200;2023-04-01T05:30:50;10.80;99.90
19363;DHT22;9817;50.80926400;5.16316200;2023-04-01T05:33:16;10.90;99.90
19363;DHT22;9817;50.80926400;5.16316200;2023-04-01T05:35:42;10.90;99.90
19363;DHT22;9817;50.80926400;5.16316200;2023-04-01T05:38:07;10.90;99.90
19363;DHT22;9817;50.80926400;5.16316200;2023-04-01T05:40:33;10.80;99.90
19363;DHT22;9817;50.80926400;5.16316200;2023-04-01T05:42:59;10.80;99.90
19363;DHT22;9817;50.80926400;5.16316200;2023-04-01T05:45:26;10.80;99.90
19363;DHT22;9817;50.80926400;5.16316200;2023-04-01T05:47:52;10.80;99.90
19363;DHT22;9817;50.80926400;5.16316200;2023-04-01T05:50:17;10.90;99.90
19363;DHT22;9817;50.80926400;5.16316200;2023-04-01T05:52:43;10.90;99.90
19363;DHT22;9817;50.80926400;5.16316200;2023-04-01T05:55:10;10.90;99.90
19363;DHT22;9817;50.80926400;5.16316200;2023-04-01T05:57:35;10.90;99.90
19363;DHT22;9817;50.80926400;5.16316200;2023-04-01T06:00:01;10.90;99.90
19363;DHT22;9817;50.80926400;5.16316200;2023-04-01T06:02:26;10.80;99.90
19363;DHT22;9817;50.80926400;5.16316200;2023-04-01T06:05:09;10.80;99.90
19363;DHT22;9817;50.80926400;5.16316200;2023-04-01T06:07:36;10.80;99.90
19363;DHT22;9817;50.80926400;5.16316200;2023-04-01T06:10:12;10.80;99.90
19363;DHT22;9817;50.80926400;5.16316200;2023-04-01T06:24:21;11.00;99.90
19363;DHT22;9817;50.80926400;5.16316200;2023-04-01T06:32:59;11.00;99.90
19363;DHT22;9817;50.80926400;5.16316200;2023-04-01T06:35:43;11.00;99.90
19363;DHT22;9817;50.80926400;5.16316200;2023-04-01T06:38:54;11.10;99.90
19363;DHT22;9817;50.80926400;5.16316200;2023-04-01T06:44:23;11.00;99.90
19363;DHT22;9817;50.80926400;5.16316200;2023-04-01T06:46:48;11.00;99.90
19363;DHT22;9817;50.80926400;5.16316200;2023-04-01T06:57:53;11.00;99.90
19363;DHT22;9817;50.80926400;5.16316200;2023-04-01T07:00:29;11.10;99.90
19363;DHT22;9817;50.80926400;5.16316200;2023-04-01T07:05:42;11.20;99.90
19363;DHT22;9817;50.80926400;5.16316200;2023-04-01T07:08:13;11.20;99.90
19363;DHT22;9817;50.80926400;5.16316200;2023-04-01T07:11:11;11.10;99.90
19363;DHT22;9817;50.80926400;5.16316200;2023-04-01T07:13:51;11.10;99.90
19363;DHT22;9817;50.80926400;5.16316200;2023-04-01T07:18:53;11.30;99.90
19363;DHT22;9817;50.80926400;5.16316200;2023-04-01T07:21:31;11.20;99.90
19363;DHT22;9817;50.80926400;5.16316200;2023-04-01T07:24:01;11.10;99.90
19363;DHT22;9817;50.80926400;5.16316200;2023-04-01T07:26:29;11.20;99.90
19363;DHT22;9817;50.80926400;5.16316200;2023-04-01T07:28:56;11.20;99.90
19363;DHT22;9817;50.80926400;5.16316200;2023-04-01T07:31:36;11.30;99.90
19363;DHT22;9817;50.80926400;5.16316200;2023-04-01T07:36:58;11.40;99.90
19363;DHT22;9817;50.80926400;5.16316200;2023-04-01T07:45:23;11.30;99.90
19363;DHT22;9817;50.80926400;5.16316200;2023-04-01T07:53:43;11.50;99.90
19363;DHT22;9817;50.80926400;5.16316200;2023-04-01T07:58:58;11.60;99.90
19363;DHT22;9817;50.80926400;5.16316200;2023-04-01T08:01:30;11.70;99.90
19363;DHT22;9817;50.80926400;5.16316200;2023-04-01T08:09:50;11.60;99.90
19363;DHT22;9817;50.80926400;5.16316200;2023-04-01T08:12:43;11.60;99.90
19363;DHT22;9817;50.80926400;5.16316200;2023-04-01T08:16:02;11.70;99.90
19363;DHT22;9817;50.80926400;5.16316200;2023-04-01T08:20:59;11.70;99.90
19363;DHT22;9817;50.80926400;5.16316200;2023-04-01T08:23:38;11.50;99.90
19363;DHT22;9817;50.80926400;5.16316200;2023-04-01T08:28:54;11.60;99.90
19363;DHT22;9817;50.80926400;5.16316200;2023-04-01T08:31:38;11.60;99.90
19363;DHT22;9817;50.80926400;5.16316200;2023-04-01T08:34:08;11.80;99.90
19363;DHT22;9817;50.80926400;5.16316200;2023-04-01T08:36:39;11.80;99.90
19363;DHT22;9817;50.80926400;5.16316200;2023-04-01T08:39:39;11.80;99.90
19363;DHT22;9817;50.80926400;5.16316200;2023-04-01T08:47:54;11.90;99.90
19363;DHT22;9817;50.80926400;5.16316200;2023-04-01T08:56:18;12.20;99.90
19363;DHT22;9817;50.80926400;5.16316200;2023-04-01T08:59:13;12.20;99.90
19363;DHT22;9817;50.80926400;5.16316200;2023-04-01T09:07:39;12.40;99.90
19363;DHT22;9817;50.80926400;5.16316200;2023-04-01T09:13:29;12.50;99.90
19363;DHT22;9817;50.80926400;5.16316200;2023-04-01T09:36:07;12.70;99.90
19363;DHT22;9817;50.80926400;5.16316200;2023-04-01T09:52:53;12.60;99.90
19363;DHT22;9817;50.80926400;5.16316200;2023-04-01T09:55:56;12.60;99.90
19363;DHT22;9817;50.80926400;5.16316200;2023-04-01T09:59:01;12.80;99.90
19363;DHT22;9817;50.80926400;5.16316200;2023-04-01T10:10:41;13.50;99.90
19363;DHT22;9817;50.80926400;5.16316200;2023-04-01T10:16:06;13.50;99.90
19363;DHT22;9817;50.80926400;5.16316200;2023-04-01T10:30:04;13.20;99.90
19363;DHT22;9817;50.80926400;5.16316200;2023-04-01T10:32:57;13.20;99.90
19363;DHT22;9817;50.80926400;5.16316200;2023-04-01T10:41:35;13.50;99.90
19363;DHT22;9817;50.80926400;5.16316200;2023-04-01T10:44:35;13.60;99.90
19363;DHT22;9817;50.80926400;5.16316200;2023-04-01T10:50:31;13.50;99.90
19363;DHT22;9817;50.80926400;5.16316200;2023-04-01T10:59:31;13.70;99.90
19363;DHT22;9817;50.80926400;5.16316200;2023-04-01T11:19:39;14.10;99.90
19363;DHT22;9817;50.80926400;5.16316200;2023-04-01T11:28:23;14.80;99.90
19363;DHT22;9817;50.80926400;5.16316200;2023-04-01T11:45:38;14.50;99.90
19363;DHT22;9817;50.80926400;5.16316200;2023-04-01T11:48:17;14.60;99.90
19363;DHT22;9817;50.80926400;5.16316200;2023-04-01T11:50:58;14.50;99.90
19363;DHT22;9817;50.80926400;5.16316200;2023-04-01T11:53:47;14.40;99.90
19363;DHT22;9817;50.80926400;5.16316200;2023-04-01T12:02:14;14.60;99.90
19363;DHT22;9817;50.80926400;5.16316200;2023-04-01T12:05:20;14.80;99.90
19363;DHT22;9817;50.80926400;5.16316200;2023-04-01T12:10:39;14.50;99.90
19363;DHT22;9817;50.80926400;5.16316200;2023-04-01T12:13:45;14.40;99.90
19363;DHT22;9817;50.80926400;5.16316200;2023-04-01T12:25:00;14.00;99.90
19363;DHT22;9817;50.80926400;5.16316200;2023-04-01T12:33:17;13.30;99.90
19363;DHT22;9817;50.80926400;5.16316200;2023-04-01T12:35:59;13.40;99.90
19363;DHT22;9817;50.80926400;5.16316200;2023-04-01T12:41:37;13.50;99.90
19363;DHT22;9817;50.80926400;5.16316200;2023-04-01T12:58:01;14.40;99.90
19363;DHT22;9817;50.80926400;5.16316200;2023-04-01T13:00:42;14.50;99.90
19363;DHT22;9817;50.80926400;5.16316200;2023-04-01T13:15:11;14.20;99.90
19363;DHT22;9817;50.80926400;5.16316200;2023-04-01T13:20:29;13.70;99.90
19363;DHT22;9817;50.80926400;5.16316200;2023-04-01T13:23:14;13.60;99.90
19363;DHT22;9817;50.80926400;5.16316200;2023-04-01T13:25:57;13.40;99.90
19363;DHT22;9817;50.80926400;5.16316200;2023-04-01T13:28:29;13.60;99.90
19363;DHT22;9817;50.80926400;5.16316200;2023-04-01T13:31:05;13.50;99.90
19363;DHT22;9817;50.80926400;5.16316200;2023-04-01T13:34:00;13.40;99.90
19363;DHT22;9817;50.80926400;5.16316200;2023-04-01T13:37:17;13.20;99.90
19363;DHT22;9817;50.80926400;5.16316200;2023-04-01T13:42:57;13.10;99.90
19363;DHT22;9817;50.80926400;5.16316200;2023-04-01T13:56:41;13.30;99.90
19363;DHT22;9817;50.80926400;5.16316200;2023-04-01T14:07:41;13.10;99.90
19363;DHT22;9817;50.80926400;5.16316200;2023-04-01T14:16:06;13.30;99.90
19363;DHT22;9817;50.80926400;5.16316200;2023-04-01T14:18:59;13.30;99.90
19363;DHT22;9817;50.80926400;5.16316200;2023-04-01T14:21:43;13.30;99.90
19363;DHT22;9817;50.80926400;5.16316200;2023-04-01T14:27:09;13.30;99.90
19363;DHT22;9817;50.80926400;5.16316200;2023-04-01T14:30:12;13.30;99.90
19363;DHT22;9817;50.80926400;5.16316200;2023-04-01T14:43:53;12.70;99.90
19363;DHT22;9817;50.80926400;5.16316200;2023-04-01T14:49:33;12.60;99.90
19363;DHT22;9817;50.80926400;5.16316200;2023-04-01T14:52:16;12.70;99.90
19363;DHT22;9817;50.80926400;5.16316200;2023-04-01T14:54:49;12.60;99.90
19363;DHT22;9817;50.80926400;5.16316200;2023-04-01T14:57:28;12.50;99.90
19363;DHT22;9817;50.80926400;5.16316200;2023-04-01T15:00:13;12.50;99.90
19363;DHT22;9817;50.80926400;5.16316200;2023-04-01T15:18:48;12.60;99.90
19363;DHT22;9817;50.80926400;5.16316200;2023-04-01T15:32:25;13.10;99.90
19363;DHT22;9817;50.80926400;5.16316200;2023-04-01T15:38:20;12.80;99.90
19363;DHT22;9817;50.80926400;5.16316200;2023-04-01T15:43:40;13.10;99.90
19363;DHT22;9817;50.80926400;5.16316200;2023-04-01T15:55:26;12.90;99.90
19363;DHT22;9817;50.80926400;5.16316200;2023-04-01T15:58:44;13.00;99.90
19363;DHT22;9817;50.80926400;5.16316200;2023-04-01T16:06:27;12.90;99.90
19363;DHT22;9817;50.80926400;5.16316200;2023-04-01T16:14:44;13.10;99.90
19363;DHT22;9817;50.80926400;5.16316200;2023-04-01T16:25:36;12.80;99.90
19363;DHT22;9817;50.80926400;5.16316200;2023-04-01T16:28:24;12.60;99.90
19363;DHT22;9817;50.80926400;5.16316200;2023-04-01T16:31:03;12.50;99.90
19363;DHT22;9817;50.80926400;5.16316200;2023-04-01T16:36:39;12.40;99.90
19363;DHT22;9817;50.80926400;5.16316200;2023-04-01T16:48:36;12.20;99.90
19363;DHT22;9817;50.80926400;5.16316200;2023-04-01T16:50:55;12.20;99.90
19363;DHT22;9817;50.80926400;5.16316200;2023-04-01T16:56:36;12.20;99.90
19363;DHT22;9817;50.80926400;5.16316200;2023-04-01T16:59:07;12.00;99.90
19363;DHT22;9817;50.80926400;5.16316200;2023-04-01T17:02:02;12.00;99.90
19363;DHT22;9817;50.80926400;5.16316200;2023-04-01T17:04:58;12.00;99.90
19363;DHT22;9817;50.80926400;5.16316200;2023-04-01T17:07:38;12.00;99.90
19363;DHT22;9817;50.80926400;5.16316200;2023-04-01T17:21:46;12.00;99.90
19363;DHT22;9817;50.80926400;5.16316200;2023-04-01T17:30:19;11.40;99.90
19363;DHT22;9817;50.80926400;5.16316200;2023-04-01T17:33:01;11.40;99.90
19363;DHT22;9817;50.80926400;5.16316200;2023-04-01T17:35:35;11.30;99.90
19363;DHT22;9817;50.80926400;5.16316200;2023-04-01T17:44:23;11.40;99.90
19363;DHT22;9817;50.80926400;5.16316200;2023-04-01T17:50:20;11.30;99.90
19363;DHT22;9817;50.80926400;5.16316200;2023-04-01T17:58:20;11.40;99.90
19363;DHT22;9817;50.80926400;5.16316200;2023-04-01T18:03:56;11.30;99.90
19363;DHT22;9817;50.80926400;5.16316200;2023-04-01T18:06:34;11.30;99.90
19363;DHT22;9817;50.80926400;5.16316200;2023-04-01T18:26:18;11.00;99.90
19363;DHT22;9817;50.80926400;5.16316200;2023-04-01T18:29:11;11.00;99.90
19363;DHT22;9817;50.80926400;5.16316200;2023-04-01T18:31:43;10.90;99.90
19363;DHT22;9817;50.80926400;5.16316200;2023-04-01T18:36:59;10.90;99.90
19363;DHT22;9817;50.80926400;5.16316200;2023-04-01T18:39:41;11.00;99.90
19363;DHT22;9817;50.80926400;5.16316200;2023-04-01T18:44:50;11.00;99.90
19363;DHT22;9817;50.80926400;5.16316200;2023-04-01T18:53:30;11.00;99.90
19363;DHT22;9817;50.80926400;5.16316200;2023-04-01T18:56:04;10.90;99.90
19363;DHT22;9817;50.80926400;5.16316200;2023-04-01T19:06:50;10.90;99.90
19363;DHT22;9817;50.80926400;5.16316200;2023-04-01T19:09:42;11.10;99.90
19363;DHT22;9817;50.80926400;5.16316200;2023-04-01T19:20:59;11.00;99.90
19363;DHT22;9817;50.80926400;5.16316200;2023-04-01T19:35:26;11.10;99.90
19363;DHT22;9817;50.80926400;5.16316200;2023-04-01T19:40:38;10.90;99.90
19363;DHT22;9817;50.80926400;5.16316200;2023-04-01T19:43:50;10.80;99.90
19363;DHT22;9817;50.80926400;5.16316200;2023-04-01T19:51:33;10.80;99.90
19363;DHT22;9817;50.80926400;5.16316200;2023-04-01T20:04:44;10.90;99.90
19363;DHT22;9817;50.80926400;5.16316200;2023-04-01T20:10:22;10.90;99.90
19363;DHT22;9817;50.80926400;5.16316200;2023-04-01T20:13:06;11.00;99.90
19363;DHT22;9817;50.80926400;5.16316200;2023-04-01T20:15:36;11.00;99.90
19363;DHT22;9817;50.80926400;5.16316200;2023-04-01T20:20:39;10.90;99.90
19363;DHT22;9817;50.80926400;5.16316200;2023-04-01T20:23:25;10.90;99.90
19363;DHT22;9817;50.80926400;5.16316200;2023-04-01T20:26:11;10.90;99.90
19363;DHT22;9817;50.80926400;5.16316200;2023-04-01T20:28:49;11.00;99.90
19363;DHT22;9817;50.80926400;5.16316200;2023-04-01T20:31:34;10.90;99.90
19363;DHT22;9817;50.80926400;5.16316200;2023-04-01T20:43:14;10.90;99.90
19363;DHT22;9817;50.80926400;5.16316200;2023-04-01T20:45:56;10.90;99.90
19363;DHT22;9817;50.80926400;5.16316200;2023-04-01T20:51:12;10.90;99.90
19363;DHT22;9817;50.80926400;5.16316200;2023-04-01T20:53:53;10.90;99.90
19363;DHT22;9817;50.80926400;5.16316200;2023-04-01T20:56:34;11.00;99.90
19363;DHT22;9817;50.80926400;5.16316200;2023-04-01T21:07:41;11.10;99.90
19363;DHT22;9817;50.80926400;5.16316200;2023-04-01T21:12:56;11.10;99.90
19363;DHT22;9817;50.80926400;5.16316200;2023-04-01T21:15:47;11.00;99.90
19363;DHT22;9817;50.80926400;5.16316200;2023-04-01T21:21:20;11.00;99.90
19363;DHT22;9817;50.80926400;5.16316200;2023-04-01T21:34:56;10.70;99.90
19363;DHT22;9817;50.80926400;5.16316200;2023-04-01T21:46:31;11.00;99.90
19363;DHT22;9817;50.80926400;5.16316200;2023-04-01T21:48:47;11.00;99.90
19363;DHT22;9817;50.80926400;5.16316200;2023-04-01T22:05:34;10.60;99.90
19363;DHT22;9817;50.80926400;5.16316200;2023-04-01T22:11:19;10.60;99.90
19363;DHT22;9817;50.80926400;5.16316200;2023-04-01T22:14:00;10.50;99.90
19363;DHT22;9817;50.80926400;5.16316200;2023-04-01T22:19:39;10.50;99.90
19363;DHT22;9817;50.80926400;5.16316200;2023-04-01T22:21:46;10.60;99.90
19363;DHT22;9817;50.80926400;5.16316200;2023-04-01T22:24:27;10.60;99.90
19363;DHT22;9817;50.80926400;5.16316200;2023-04-01T22:27:12;10.60;99.90
19363;DHT22;9817;50.80926400;5.16316200;2023-04-01T22:30:09;10.50;99.90
19363;DHT22;9817;50.80926400;5.16316200;2023-04-01T22:32:44;10.50;99.90
19363;DHT22;9817;50.80926400;5.16316200;2023-04-01T22:35:20;10.30;99.90
19363;DHT22;9817;50.80926400;5.16316200;2023-04-01T22:40:52;10.30;99.90
19363;DHT22;9817;50.80926400;5.16316200;2023-04-01T22:48:36;10.10;99.90
19363;DHT22;9817;50.80926400;5.16316200;2023-04-01T22:51:21;10.00;99.90
19363;DHT22;9817;50.80926400;5.16316200;2023-04-01T22:54:14;10.00;99.90
19363;DHT22;9817;50.80926400;5.16316200;2023-04-01T22:56:51;9.90;99.90
19363;DHT22;9817;50.80926400;5.16316200;2023-04-01T23:02:10;9.90;99.90
19363;DHT22;9817;50.80926400;5.16316200;2023-04-01T23:04:40;10.00;99.90
19363;DHT22;9817;50.80926400;5.16316200;2023-04-01T23:07:32;9.90;99.90
19363;DHT22;9817;50.80926400;5.16316200;2023-04-01T23:10:05;9.90;99.90
19363;DHT22;9817;50.80926400;5.16316200;2023-04-01T23:12:38;10.00;99.90
19363;DHT22;9817;50.80926400;5.16316200;2023-04-01T23:15:04;9.90;99.90
19363;DHT22;9817;50.80926400;5.16316200;2023-04-01T23:28:35;9.70;99.90
19363;DHT22;9817;50.80926400;5.16316200;2023-04-01T23:33:58;9.70;99.90
19363;DHT22;9817;50.80926400;5.16316200;2023-04-01T23:36:26;9.70;99.90
19363;DHT22;9817;50.80926400;5.16316200;2023-04-01T23:38:52;9.80;99.90
19363;DHT22;9817;50.80926400;5.16316200;2023-04-01T23:41:29;9.80;99.90
19363;DHT22;9817;50.80926400;5.16316200;2023-04-01T23:44:07;9.60;99.90
19363;DHT22;9817;50.80926400;5.16316200;2023-04-01T23:46:35;9.50;99.90
19363;DHT22;9817;50.80926400;5.16316200;2023-04-01T23:49:03;9.40;99.90
19363;DHT22;9817;50.80926400;5.16316200;2023-04-01T23:51:38;9.40;99.90
19363;DHT22;9817;50.80926400;5.16316200;2023-04-01T23:54:13;9.50;99.90
19363;DHT22;9817;50.80926400;5.16316200;2023-04-01T23:56:52;9.50;99.90
19363;DHT22;9817;50.80926400;5.16316200;2023-04-01T23:59:24;9.50;99.90
